Time;durP1;ratioP1;P1;durP2;ratioP2;P2;SDS_P1;SDS_P2;PMS_P1;PMS_P2;Temp;Humidity;BMP_temperature;BMP_pressure;BME280_temperature;BME280_humidity;BME280_pressure;Samples;Min_cycle;Max_cycle;Signal;HPM_P1;HPM_P2
2021/07/26 00:01:20;;;;;;;9.73;7.88;;;;;;;21.39;70.59;100046.66;5033588;28;20148;-76
2021/07/26 00:03:45;;;;;;;11.60;8.18;;;;;;;21.40;71.15;100045.69;5033623;28;20037;-76
2021/07/26 00:06:11;;;;;;;9.95;7.70;;;;;;;21.36;70.79;100048.63;5033351;28;20064;-76
2021/07/26 00:08:36;;;;;;;10.45;8.40;;;;;;;21.25;72.11;100043.91;5031717;28;20095;-76
2021/07/26 00:11:04;;;;;;;8.60;7.70;;;;;;;21.26;71.73;100045.63;5031027;28;20042;-76
2021/07/26 00:13:29;;;;;;;8.93;7.85;;;;;;;21.32;71.70;100044.38;5032886;28;20025;-76
2021/07/26 00:15:55;;;;;;;9.57;7.68;;;;;;;21.33;71.57;100051.50;5033122;28;20416;-76
2021/07/26 00:18:21;;;;;;;10.73;8.23;;;;;;;21.33;71.58;100040.78;5033255;28;20168;-76
2021/07/26 00:20:46;;;;;;;9.45;8.27;;;;;;;21.28;71.87;100042.84;5032807;28;20044;-76
2021/07/26 00:23:11;;;;;;;10.25;8.10;;;;;;;21.17;72.62;100038.13;5033217;28;20103;-76
2021/07/26 00:25:37;;;;;;;9.43;8.05;;;;;;;21.09;72.95;100034.97;5032957;28;20076;-76
2021/07/26 00:28:02;;;;;;;10.68;8.40;;;;;;;21.07;72.77;100035.09;5033029;28;20073;-75
2021/07/26 00:30:28;;;;;;;9.40;8.40;;;;;;;21.07;72.53;100037.78;5032931;28;20083;-76
2021/07/26 00:32:53;;;;;;;9.43;8.25;;;;;;;21.00;73.31;100039.94;5031910;28;20075;-75
2021/07/26 00:35:18;;;;;;;10.40;8.10;;;;;;;20.96;73.16;100033.03;5032863;28;20072;-76
2021/07/26 00:37:44;;;;;;;8.57;7.68;;;;;;;20.97;73.32;100037.44;5033105;28;20029;-76
2021/07/26 00:40:10;;;;;;;10.10;8.35;;;;;;;20.99;73.07;100027.47;5032882;28;20518;-76
2021/07/26 00:42:36;;;;;;;9.38;7.53;;;;;;;21.06;72.97;100029.78;5032901;28;20029;-76
2021/07/26 00:45:02;;;;;;;11.18;8.68;;;;;;;21.06;72.77;100032.47;5023212;28;20515;-76
2021/07/26 00:47:27;;;;;;;9.70;8.70;;;;;;;21.03;72.83;100033.53;5032680;28;20037;-76
2021/07/26 00:49:53;;;;;;;9.90;8.07;;;;;;;21.02;73.51;100027.28;5032701;28;20033;-75
2021/07/26 00:52:19;;;;;;;14.80;9.88;;;;;;;20.99;73.36;100034.66;5032746;28;20040;-76
2021/07/26 00:54:45;;;;;;;10.38;9.27;;;;;;;20.95;73.76;100044.69;5032427;28;20095;-76
2021/07/26 00:57:11;;;;;;;12.00;9.50;;;;;;;20.83;74.57;100058.81;5032632;28;20447;-76
2021/07/26 00:59:36;;;;;;;12.73;9.35;;;;;;;20.79;74.59;100051.88;5032387;28;20040;-76
2021/07/26 01:02:03;;;;;;;10.48;8.75;;;;;;;20.75;75.21;100061.03;5032539;28;20112;-76
2021/07/26 01:04:28;;;;;;;11.35;9.00;;;;;;;20.74;74.96;100051.28;5032213;28;20703;-76
2021/07/26 01:06:54;;;;;;;11.15;9.73;;;;;;;20.71;75.24;100046.09;5032412;28;20031;-76
2021/07/26 01:09:20;;;;;;;12.18;8.88;;;;;;;20.70;74.92;100047.03;5022831;28;20030;-75
2021/07/26 01:11:45;;;;;;;11.55;8.88;;;;;;;20.69;75.10;100047.97;5032319;28;20514;-75
2021/07/26 01:14:12;;;;;;;11.18;8.70;;;;;;;20.72;74.56;100035.28;5031988;28;20454;-76
2021/07/26 01:16:37;;;;;;;9.10;7.63;;;;;;;20.77;74.96;100032.31;5032226;28;20052;-75
2021/07/26 01:19:03;;;;;;;9.63;7.80;;;;;;;20.76;74.53;100031.47;5032089;28;20547;-75
2021/07/26 01:21:30;;;;;;;11.73;9.65;;;;;;;20.80;74.24;100032.16;5032180;28;20033;-75
2021/07/26 01:23:57;;;;;;;10.80;9.70;;;;;;;20.75;74.79;100029.75;5031589;28;20479;-75
2021/07/26 01:26:24;;;;;;;10.00;8.85;;;;;;;20.69;75.00;100032.75;5027871;28;20558;-75
2021/07/26 01:28:52;;;;;;;11.35;10.15;;;;;;;20.52;75.84;100030.97;5031832;28;20056;-75
2021/07/26 01:31:18;;;;;;;12.35;11.10;;;;;;;20.51;75.93;100031.94;5031373;28;20069;-75
2021/07/26 01:33:45;;;;;;;11.45;9.90;;;;;;;20.44;75.81;100035.06;5031832;28;20056;-75
2021/07/26 01:36:11;;;;;;;24.55;11.30;;;;;;;20.39;76.06;100035.28;5031975;28;20492;-75
2021/07/26 01:38:37;;;;;;;11.02;8.73;;;;;;;20.41;75.93;100041.44;5031833;28;20063;-75
2021/07/26 01:41:11;;;;;;;11.27;10.05;;;;;;;20.37;75.69;100042.53;5031817;28;20519;-76
2021/07/26 01:43:50;;;;;;;9.48;8.48;;;;;;;20.39;75.24;100046.00;5014253;28;20041;-75
2021/07/26 01:46:40;;;;;;;9.82;8.48;;;;;;;20.35;75.74;100042.63;5028608;28;20033;-76
2021/07/26 01:49:23;;;;;;;9.20;8.20;;;;;;;20.30;75.37;100059.91;5027869;28;20045;-75
2021/07/26 01:51:49;;;;;;;12.48;8.70;;;;;;;20.28;75.29;100059.13;5029704;28;20033;-75
2021/07/26 01:54:14;;;;;;;10.23;8.55;;;;;;;20.30;75.92;100066.16;5031643;28;20501;-75
2021/07/26 01:56:40;;;;;;;11.25;9.27;;;;;;;20.29;76.03;100071.56;5031466;28;20116;-75
2021/07/26 01:59:06;;;;;;;10.80;9.70;;;;;;;20.21;76.24;100073.81;5031404;28;20040;-75
2021/07/26 02:01:32;;;;;;;12.77;9.73;;;;;;;20.21;76.24;100076.47;5031503;28;20033;-75
2021/07/26 02:03:58;;;;;;;11.48;9.35;;;;;;;20.24;76.52;100074.50;5031480;28;20481;-75
2021/07/26 02:06:24;;;;;;;11.35;9.18;;;;;;;20.29;76.44;100077.78;5031164;28;20535;-75
2021/07/26 02:08:49;;;;;;;12.93;10.25;;;;;;;20.34;75.93;100082.91;5021833;28;20059;-75
2021/07/26 02:11:15;;;;;;;15.73;9.77;;;;;;;20.39;76.37;100080.84;5031159;28;20029;-75
2021/07/26 02:13:40;;;;;;;11.35;10.13;;;;;;;20.40;75.84;100079.91;5031349;28;20037;-75
2021/07/26 02:16:10;;;;;;;11.45;10.25;;;;;;;20.40;76.05;100073.69;5031130;28;20534;-75
2021/07/26 02:18:35;;;;;;;11.55;9.43;;;;;;;20.34;76.43;100072.19;5031486;28;20433;-75
2021/07/26 02:21:00;;;;;;;14.80;11.63;;;;;;;20.25;76.68;100080.72;5031131;28;20041;-75
2021/07/26 02:23:26;;;;;;;14.75;12.18;;;;;;;20.10;77.58;100088.63;5031246;28;20033;-75
2021/07/26 02:25:51;;;;;;;12.75;11.45;;;;;;;20.02;77.76;100082.81;5021548;28;20081;-75
2021/07/26 02:28:16;;;;;;;20.92;12.95;;;;;;;19.88;78.80;100094.22;5030979;28;20400;-75
2021/07/26 02:30:42;;;;;;;13.80;11.52;;;;;;;19.81;78.64;100081.25;5031082;28;20041;-76
2021/07/26 02:33:07;;;;;;;10.93;9.73;;;;;;;19.84;77.94;100086.44;5031155;28;20052;-75
2021/07/26 02:35:32;;;;;;;12.40;10.60;;;;;;;19.81;77.69;100084.78;5032795;28;20396;-76
2021/07/26 02:37:58;;;;;;;15.30;11.57;;;;;;;19.77;77.58;100079.66;5031184;28;20056;-75
2021/07/26 02:40:25;;;;;;;12.95;11.32;;;;;;;19.72;78.11;100087.06;5017250;28;20063;-75
2021/07/26 02:42:50;;;;;;;12.52;10.63;;;;;;;19.65;77.59;100076.66;5025891;28;20069;-75
2021/07/26 02:45:16;;;;;;;13.52;10.20;;;;;;;19.61;77.77;100072.38;5034825;28;20076;-75
2021/07/26 02:47:41;;;;;;;13.32;11.43;;;;;;;19.57;78.12;100081.53;5034443;28;20029;-75
2021/07/26 02:50:07;;;;;;;15.95;14.35;;;;;;;19.47;78.87;100085.59;5034932;28;20029;-75
2021/07/26 02:52:33;;;;;;;16.38;14.55;;;;;;;19.40;79.83;100084.19;5034734;28;20107;-75
2021/07/26 02:54:59;;;;;;;14.45;12.82;;;;;;;19.40;79.19;100081.50;5034110;28;20064;-75
2021/07/26 02:57:24;;;;;;;18.27;15.00;;;;;;;19.39;79.58;100083.31;5034674;28;20053;-75
2021/07/26 02:59:49;;;;;;;17.58;14.88;;;;;;;19.36;79.38;100094.19;5034608;28;20065;-75
2021/07/26 03:02:15;;;;;;;15.82;14.10;;;;;;;19.27;80.15;100091.94;5034806;28;20025;-75
2021/07/26 03:04:40;;;;;;;16.90;13.85;;;;;;;19.19;80.47;100099.47;5034340;28;20136;-75
2021/07/26 03:07:05;;;;;;;13.20;11.82;;;;;;;19.16;80.38;100097.81;5034662;28;20038;-75
2021/07/26 03:09:31;;;;;;;16.80;13.38;;;;;;;19.17;80.40;100102.22;5034366;28;20049;-75
2021/07/26 03:11:56;;;;;;;15.23;13.63;;;;;;;19.20;79.83;100107.44;5034604;28;20042;-75
2021/07/26 03:14:21;;;;;;;15.52;13.93;;;;;;;19.21;80.27;100103.81;5034224;28;20045;-75
2021/07/26 03:16:47;;;;;;;17.52;14.98;;;;;;;19.23;79.78;100109.97;5034342;28;20120;-75
2021/07/26 03:19:12;;;;;;;16.77;12.90;;;;;;;19.16;80.52;100107.66;5034221;28;20042;-75
2021/07/26 03:21:38;;;;;;;15.38;12.75;;;;;;;19.11;79.95;100099.84;5034363;28;20198;-75
2021/07/26 03:24:03;;;;;;;13.27;11.90;;;;;;;19.08;79.95;100105.34;5034275;28;20045;-75
2021/07/26 03:26:29;;;;;;;12.68;10.43;;;;;;;19.02;80.18;100106.50;5033969;28;20041;-75
2021/07/26 03:28:54;;;;;;;14.80;12.57;;;;;;;19.02;79.99;100101.16;5034147;28;20038;-75
2021/07/26 03:31:19;;;;;;;14.00;12.30;;;;;;;18.97;80.38;100105.00;5034203;28;20099;-75
2021/07/26 03:33:45;;;;;;;13.80;12.40;;;;;;;18.98;80.63;100099.56;5034115;28;20120;-75
2021/07/26 03:36:12;;;;;;;13.07;11.77;;;;;;;19.01;80.30;100103.91;5016132;28;20033;-75
2021/07/26 03:38:37;;;;;;;12.75;11.00;;;;;;;19.02;80.44;100105.63;5034027;28;20044;-76
2021/07/26 03:41:03;;;;;;;16.88;13.75;;;;;;;19.04;80.54;100114.44;5034029;28;20041;-75
2021/07/26 03:43:30;;;;;;;16.65;14.88;;;;;;;18.99;80.94;100111.13;5033854;28;20124;-75
2021/07/26 03:45:55;;;;;;;19.52;15.95;;;;;;;18.94;81.22;100111.38;5033088;28;20041;-75
2021/07/26 03:48:21;;;;;;;18.25;14.80;;;;;;;18.99;80.39;100106.66;5032978;28;20069;-75
2021/07/26 03:50:46;;;;;;;17.17;15.38;;;;;;;19.01;80.52;100103.91;5024352;28;20045;-75
2021/07/26 03:53:11;;;;;;;15.15;13.55;;;;;;;18.97;80.27;100096.97;5033919;28;20045;-74
2021/07/26 03:55:37;;;;;;;14.70;13.15;;;;;;;18.97;80.41;100095.16;5029749;28;20029;-75
2021/07/26 03:58:06;;;;;;;16.23;14.60;;;;;;;18.95;80.95;100094.38;5036062;28;20037;-75
2021/07/26 04:00:32;;;;;;;14.93;13.43;;;;;;;18.99;80.49;100101.31;5033497;28;20038;-75
2021/07/26 04:03:07;;;;;;;22.30;19.45;;;;;;;18.99;81.50;100097.75;5033591;28;20040;-75
2021/07/26 04:05:39;;;;;;;20.55;15.80;;;;;;;18.98;81.38;100104.06;5033546;28;20048;-75
2021/07/26 04:08:13;;;;;;;20.17;16.73;;;;;;;18.99;81.53;100100.44;5033056;28;20590;-75
2021/07/26 04:10:41;;;;;;;17.00;15.15;;;;;;;18.92;82.50;100099.88;5033296;28;20034;-75
2021/07/26 04:13:06;;;;;;;18.38;16.55;;;;;;;18.82;82.82;100104.78;5019635;28;20041;-75
2021/07/26 04:15:32;;;;;;;21.33;19.15;;;;;;;18.91;82.44;100100.78;5033116;28;20044;-75
2021/07/26 04:17:57;;;;;;;18.95;16.85;;;;;;;18.96;82.85;100100.56;5033557;28;20155;-75
2021/07/26 04:20:22;;;;;;;19.13;16.48;;;;;;;18.99;82.37;100105.78;5032728;28;20041;-75
2021/07/26 04:22:48;;;;;;;19.52;17.42;;;;;;;19.07;82.11;100122.31;5033178;28;20044;-75
2021/07/26 04:25:13;;;;;;;19.00;17.08;;;;;;;19.11;82.20;100129.25;5028838;28;20029;-75
2021/07/26 04:27:38;;;;;;;19.45;17.45;;;;;;;19.19;81.57;100135.13;5033048;28;20463;-75
2021/07/26 04:30:05;;;;;;;22.90;18.90;;;;;;;19.26;82.04;100128.53;5033020;28;20033;-74
2021/07/26 04:32:30;;;;;;;22.25;19.95;;;;;;;19.34;82.13;100132.66;5032912;28;20048;-74
2021/07/26 04:34:59;;;;;;;22.33;20.02;;;;;;;19.39;82.08;100138.66;5032821;28;20042;-75
2021/07/26 04:37:26;;;;;;;22.27;17.10;;;;;;;19.44;81.71;100147.28;5006655;28;20594;-75
2021/07/26 04:39:51;;;;;;;20.10;16.70;;;;;;;19.46;81.13;100143.59;5030246;28;20388;-75
2021/07/26 04:42:16;;;;;;;18.50;15.45;;;;;;;19.55;81.09;100142.28;5028932;28;20037;-75
2021/07/26 04:44:42;;;;;;;19.45;16.80;;;;;;;19.59;80.64;100138.50;5029796;28;20516;-74
2021/07/26 04:47:08;;;;;;;16.25;14.55;;;;;;;19.62;80.72;100135.72;5031661;28;20067;-74
2021/07/26 04:49:33;;;;;;;18.48;15.15;;;;;;;19.71;80.69;100137.06;5026065;28;20119;-74
2021/07/26 04:51:58;;;;;;;14.98;13.40;;;;;;;19.80;79.95;100136.59;5024577;28;20489;-74
2021/07/26 04:54:24;;;;;;;18.25;14.50;;;;;;;19.83;79.78;100135.56;5024648;28;20594;-75
2021/07/26 04:56:49;;;;;;;16.42;14.75;;;;;;;19.88;79.87;100128.19;5031978;28;20048;-75
2021/07/26 04:59:14;;;;;;;16.15;13.77;;;;;;;19.92;79.03;100127.09;5032118;28;20025;-75
2021/07/26 05:01:40;;;;;;;15.05;12.90;;;;;;;20.00;79.43;100124.88;5032494;28;20037;-75
2021/07/26 05:04:05;;;;;;;17.35;14.68;;;;;;;20.08;79.21;100122.66;5030800;28;20085;-75
2021/07/26 05:06:30;;;;;;;17.48;15.55;;;;;;;20.16;78.51;100126.75;5031777;28;20041;-75
2021/07/26 05:08:56;;;;;;;16.77;12.95;;;;;;;20.27;77.84;100129.75;5031988;28;20045;-75
2021/07/26 05:11:22;;;;;;;14.68;12.82;;;;;;;20.41;77.36;100121.84;5051584;23;20066;-87
2021/07/26 05:13:47;;;;;;;16.38;14.63;;;;;;;20.47;77.45;100121.50;5036861;28;20488;-87
2021/07/26 05:16:13;;;;;;;18.90;15.93;;;;;;;20.54;77.25;100116.69;5042578;28;20043;-87
2021/07/26 05:18:38;;;;;;;18.88;15.10;;;;;;;20.62;76.92;100118.97;5039333;28;20052;-87
2021/07/26 05:21:03;;;;;;;21.02;15.05;;;;;;;20.61;77.06;100112.75;5031755;28;20037;-87
2021/07/26 05:23:29;;;;;;;16.02;14.43;;;;;;;20.75;77.21;100122.72;5033990;28;20053;-87
2021/07/26 05:34:36;;;;;;;18.08;15.20;;;;;;;21.09;76.01;100123.53;4951245;29;20114;-87
2021/07/26 06:17:46;;;;;;;18.25;12.10;;;;;;;23.01;69.75;100120.16;5010289;28;19947;-86
2021/07/26 06:45:43;;;;;;;9.25;7.47;;;;;;;23.98;64.15;100131.66;4943473;29;20053;-86
2021/07/26 06:48:35;;;;;;;8.68;7.60;;;;;;;24.11;63.74;100133.50;4942781;29;20130;-86
2021/07/26 07:28:33;;;;;;;9.13;6.07;;;;;;;24.69;61.69;100132.16;4926631;29;20135;-85
2021/07/26 07:31:07;;;;;;;7.90;5.90;;;;;;;24.70;62.13;100132.03;4925533;28;20050;-86
2021/07/26 07:33:48;;;;;;;10.13;6.20;;;;;;;24.85;61.85;100140.00;4984553;28;20030;-85
2021/07/26 07:40:36;;;;;;;8.35;5.60;;;;;;;24.74;60.13;100143.50;4907084;29;20079;-85
2021/07/26 07:47:34;;;;;;;;;;;;;;;24.91;60.13;100151.22;4915065;29;20112;-85
2021/07/26 07:53:39;;;;;;;9.65;7.03;;;;;;;25.25;58.46;100150.63;4987401;28;20507;-86
2021/07/26 07:56:04;;;;;;;7.95;5.60;;;;;;;25.41;58.68;100153.06;4985729;28;20038;-86
2021/07/26 07:58:43;;;;;;;;;;;;;;;;;;;;;
2021/07/26 08:17:19;;;;;;;8.43;5.85;;;;;;;26.02;54.70;100149.34;4985875;28;20404;-86
2021/07/26 08:19:57;;;;;;;8.70;6.50;;;;;;;26.28;54.01;100148.31;4985761;28;20540;-86
2021/07/26 08:22:22;;;;;;;7.20;4.90;;;;;;;26.42;52.76;100156.22;4984714;28;20042;-86
2021/07/26 08:37:35;;;;;;;7.00;4.50;;;;;;;26.75;52.85;100149.13;4830262;29;20097;-86
2021/07/26 08:51:23;;;;;;;5.55;4.38;;;;;;;27.01;52.72;100145.22;5026751;23;20046;-86
2021/07/26 08:54:19;;;;;;;5.03;4.10;;;;;;;27.06;51.41;100151.13;4997417;28;20504;-86
2021/07/26 08:57:30;;;;;;;;;;;;;;;;;;;;;
2021/07/26 09:08:21;;;;;;;11.05;7.32;;;;;;;27.60;49.19;100148.56;4894995;29;20051;-86
2021/07/26 09:10:57;;;;;;;;;;;;;;;;;;;;;
2021/07/26 09:14:27;;;;;;;;;;;;;;;27.69;47.33;100150.50;4873158;29;20204;-86
2021/07/26 09:16:56;;;;;;;9.18;4.20;;;;;;;27.73;48.38;100160.13;4862761;29;19923;-85
2021/07/26 09:19:21;;;;;;;5.25;3.90;;;;;;;27.80;47.74;100155.03;4892400;29;20708;-86
2021/07/26 09:21:55;;;;;;;6.93;5.38;;;;;;;27.92;47.97;100152.16;4957107;28;20073;-86
2021/07/26 09:28:15;;;;;;;5.32;3.80;;;;;;;28.20;47.56;100157.97;5003467;28;20164;-85
2021/07/26 09:31:13;;;;;;;6.68;3.60;;;;;;;28.11;47.33;100156.91;5003101;28;20034;-86
2021/07/26 09:33:39;;;;;;;8.20;5.93;;;;;;;28.23;46.31;100157.69;5002242;28;20063;-86
2021/07/26 09:36:45;;;;;;;;;;;;;;;;;;;;;
2021/07/26 09:39:52;;;;;;;8.88;3.90;;;;;;;28.40;43.22;100165.25;5003044;28;20101;-86
2021/07/26 09:42:28;;;;;;;7.20;3.63;;;;;;;28.40;44.59;100159.81;4999564;28;20030;-86
2021/07/26 09:45:36;;;;;;;;;;;;;;;;;;;;;
2021/07/26 09:48:29;;;;;;;6.43;4.97;;;;;;;28.17;45.45;100158.22;4982539;28;20114;-85
2021/07/26 09:50:56;;;;;;;7.63;5.18;;;;;;;28.42;44.64;100154.25;4970659;28;20052;-86
2021/07/26 09:53:25;;;;;;;7.72;5.82;;;;;;;28.62;43.46;100147.97;4983302;28;20038;-86
2021/07/26 09:55:55;;;;;;;8.70;5.95;;;;;;;28.86;43.37;100154.09;4994058;28;20042;-86
2021/07/26 09:58:34;;;;;;;6.45;5.15;;;;;;;29.07;42.43;100151.34;5003113;28;20030;-83
2021/07/26 10:01:08;;;;;;;6.47;5.00;;;;;;;29.18;41.76;100154.78;5000698;28;20093;-86
2021/07/26 10:03:39;;;;;;;5.53;3.80;;;;;;;29.31;42.39;100154.56;4991370;28;20112;-86
2021/07/26 10:06:13;;;;;;;8.20;5.93;;;;;;;29.34;42.22;100140.66;4999416;28;20035;-87
2021/07/26 10:08:43;;;;;;;8.13;5.85;;;;;;;29.40;42.87;100153.72;4985515;28;20069;-87
2021/07/26 10:11:09;;;;;;;6.03;4.95;;;;;;;29.44;41.99;100148.84;4952945;28;20057;-86
2021/07/26 10:13:38;;;;;;;4.97;3.65;;;;;;;29.56;41.68;100146.88;4981633;28;20137;-86
2021/07/26 10:16:04;;;;;;;5.88;4.25;;;;;;;29.61;41.42;100150.91;4995561;28;20065;-85
2021/07/26 10:18:30;;;;;;;10.02;5.53;;;;;;;29.67;41.46;100142.19;4975906;28;20034;-86
2021/07/26 10:21:07;;;;;;;5.43;4.20;;;;;;;29.72;41.24;100143.66;4974128;28;20030;-86
2021/07/26 10:23:42;;;;;;;5.53;3.85;;;;;;;29.66;41.20;100148.66;4980857;28;20113;-86
2021/07/26 10:26:11;;;;;;;8.88;5.53;;;;;;;29.61;41.65;100152.75;4998429;28;20077;-86
2021/07/26 10:28:40;;;;;;;10.75;9.65;;;;;;;29.78;41.30;100146.63;4981805;28;20029;-85
2021/07/26 10:31:30;;;;;;;7.80;4.85;;;;;;;29.88;41.01;100157.53;4971160;28;20037;-86
2021/07/26 10:34:11;;;;;;;5.18;3.88;;;;;;;29.82;40.98;100141.78;4971395;28;20030;-86
2021/07/26 10:36:43;;;;;;;5.90;3.70;;;;;;;29.78;40.85;100143.06;4986934;28;20031;-85
2021/07/26 10:39:15;;;;;;;6.47;5.22;;;;;;;29.96;41.05;100143.22;4980598;28;20065;-84
2021/07/26 10:41:46;;;;;;;6.25;4.38;;;;;;;30.35;39.92;100144.06;4993334;28;20030;-85
2021/07/26 10:44:18;;;;;;;6.63;4.68;;;;;;;30.50;38.89;100142.59;4991616;28;20042;-85
2021/07/26 10:47:07;;;;;;;5.88;4.40;;;;;;;30.65;39.10;100134.78;4971398;28;20042;-86
2021/07/26 10:49:35;;;;;;;5.05;3.75;;;;;;;30.85;38.95;100135.59;4988964;28;20050;-86
2021/07/26 10:52:01;;;;;;;5.25;3.65;;;;;;;31.05;39.04;100128.22;4975159;28;20049;-85
2021/07/26 10:54:34;;;;;;;4.80;4.25;;;;;;;30.94;38.99;100132.00;4978962;28;20038;-85
2021/07/26 10:56:59;;;;;;;7.30;5.53;;;;;;;31.10;38.37;100133.19;4986113;28;20044;-85
2021/07/26 10:59:25;;;;;;;7.05;5.90;;;;;;;31.44;37.83;100120.69;5004085;28;20026;-82
2021/07/26 11:01:57;;;;;;;6.13;4.40;;;;;;;31.62;37.04;100119.81;4991682;28;20125;-81
2021/07/26 11:04:40;;;;;;;6.38;4.88;;;;;;;31.53;37.63;100118.03;5010409;28;20041;-82
2021/07/26 11:07:08;;;;;;;7.72;4.10;;;;;;;31.33;38.46;100112.66;4981980;28;20030;-82
2021/07/26 11:09:36;;;;;;;8.75;6.70;;;;;;;31.17;38.05;100116.06;4990303;28;20034;-82
2021/07/26 11:12:02;;;;;;;7.60;4.53;;;;;;;31.26;38.20;100106.13;5018177;23;20046;-75
2021/07/26 11:14:28;;;;;;;5.43;4.32;;;;;;;31.52;37.25;100105.41;4990469;28;20081;-74
2021/07/26 11:16:58;;;;;;;5.47;3.55;;;;;;;31.74;35.85;100102.22;4988887;28;20492;-75
2021/07/26 11:19:44;;;;;;;5.47;3.40;;;;;;;31.52;36.60;100108.13;4992564;28;20085;-75
2021/07/26 11:22:15;;;;;;;6.40;3.45;;;;;;;31.59;37.40;100111.97;4988753;28;20299;-75
2021/07/26 11:24:41;;;;;;;4.68;3.22;;;;;;;31.60;36.42;100109.09;4994580;28;20038;-75
2021/07/26 11:27:07;;;;;;;5.88;3.40;;;;;;;31.58;36.92;100108.38;4994990;28;20029;-74
2021/07/26 11:29:34;;;;;;;5.35;3.47;;;;;;;31.42;36.87;100106.34;4994806;28;20073;-74
2021/07/26 11:31:59;;;;;;;4.90;3.60;;;;;;;31.39;36.72;100101.19;4994746;28;20404;-75
2021/07/26 11:34:29;;;;;;;4.55;3.60;;;;;;;31.33;36.93;100099.03;4994531;28;20034;-75
2021/07/26 11:37:09;;;;;;;5.47;3.72;;;;;;;31.18;37.14;100100.59;4994796;28;20474;-75
2021/07/26 11:39:51;;;;;;;6.18;3.63;;;;;;;31.48;36.15;100095.81;4991246;28;20046;-75
2021/07/26 11:42:24;;;;;;;4.75;3.75;;;;;;;31.85;36.36;100098.38;4994532;28;20042;-75
2021/07/26 11:44:50;;;;;;;5.80;4.07;;;;;;;32.18;34.84;100091.34;4994398;28;20493;-74
2021/07/26 11:47:17;;;;;;;7.50;3.75;;;;;;;32.55;34.69;100092.97;4990829;28;20492;-75
2021/07/26 11:49:47;;;;;;;5.30;3.58;;;;;;;32.49;35.44;100085.44;4994484;28;20084;-75
2021/07/26 11:52:12;;;;;;;8.68;5.78;;;;;;;32.19;35.99;100092.19;4994410;28;20485;-75
2021/07/26 11:54:37;;;;;;;6.65;5.00;;;;;;;32.10;35.09;100083.09;4994132;28;20035;-75
2021/07/26 11:57:07;;;;;;;10.02;5.78;;;;;;;31.99;35.71;100080.59;4994402;28;20038;-75
2021/07/26 11:59:34;;;;;;;5.32;3.63;;;;;;;32.12;36.07;100085.66;4994321;28;20045;-75
2021/07/26 12:02:11;;;;;;;5.60;4.13;;;;;;;32.02;35.39;100080.31;4994234;28;20049;-75
2021/07/26 12:04:37;;;;;;;7.90;5.38;;;;;;;32.26;35.19;100077.75;4972122;28;20433;-74
2021/07/26 12:07:07;;;;;;;7.32;4.15;;;;;;;33.10;34.25;100075.31;4993551;28;20042;-74
2021/07/26 12:09:34;;;;;;;4.97;4.07;;;;;;;33.08;32.91;100078.19;4993469;28;20471;-74
2021/07/26 12:12:12;;;;;;;4.45;3.58;;;;;;;33.41;31.57;100072.81;4993589;28;20049;-75
2021/07/26 12:14:38;;;;;;;5.90;3.78;;;;;;;33.38;31.88;100068.53;4979374;28;20039;-74
2021/07/26 12:17:23;;;;;;;6.30;3.95;;;;;;;33.42;31.54;100071.78;4993840;28;20061;-75
2021/07/26 12:20:02;;;;;;;5.93;4.38;;;;;;;34.13;30.68;100056.63;4973011;28;20052;-74
2021/07/26 12:22:38;;;;;;;5.28;3.60;;;;;;;34.74;31.26;100058.88;4976367;28;20038;-75
2021/07/26 12:25:25;;;;;;;5.97;3.97;;;;;;;34.68;30.28;100057.69;4993551;28;20054;-74
2021/07/26 12:28:03;;;;;;;5.95;4.10;;;;;;;35.18;31.61;100053.69;4973453;28;20031;-75
2021/07/26 12:30:40;;;;;;;5.22;3.58;;;;;;;34.81;30.58;100046.16;4990297;28;20035;-75
2021/07/26 12:33:06;;;;;;;4.75;3.42;;;;;;;34.18;30.42;100053.34;4993636;28;20117;-75
2021/07/26 12:35:32;;;;;;;6.55;4.03;;;;;;;34.02;31.23;100044.09;4989708;28;20034;-75
2021/07/26 12:38:05;;;;;;;5.50;3.45;;;;;;;33.45;32.49;100057.75;4993514;28;20034;-75
2021/07/26 12:40:32;;;;;;;5.28;3.45;;;;;;;33.49;32.79;100053.69;4993256;28;20077;-75
2021/07/26 12:43:18;;;;;;;5.65;3.88;;;;;;;32.94;32.59;100049.59;4993583;28;20524;-75
2021/07/26 12:46:00;;;;;;;4.55;3.35;;;;;;;32.65;33.30;100052.72;4990190;28;20467;-75
2021/07/26 12:48:27;;;;;;;5.00;3.90;;;;;;;33.41;32.19;100056.41;4993373;28;20069;-74
2021/07/26 12:50:53;;;;;;;6.85;4.40;;;;;;;33.57;31.57;100040.03;4993225;28;20437;-75
2021/07/26 12:53:19;;;;;;;5.25;3.85;;;;;;;34.14;30.26;100041.91;4993329;28;20963;-74
2021/07/26 12:55:47;;;;;;;4.65;3.65;;;;;;;35.38;29.40;100045.00;4993113;28;20046;-74
2021/07/26 12:58:16;;;;;;;5.60;4.07;;;;;;;35.72;28.11;100041.84;4989769;28;20061;-74
2021/07/26 13:00:43;;;;;;;7.53;3.78;;;;;;;35.40;28.43;100031.94;4993127;28;20053;-74
2021/07/26 13:03:12;;;;;;;4.68;3.50;;;;;;;34.75;29.19;100042.25;4992864;28;20031;-75
2021/07/26 13:05:42;;;;;;;4.70;3.25;;;;;;;33.90;30.68;100045.47;4989568;28;20608;-75
2021/07/26 13:08:08;;;;;;;5.13;3.92;;;;;;;33.66;30.91;100043.63;4992796;28;20400;-75
2021/07/26 13:10:37;;;;;;;4.40;3.75;;;;;;;34.94;29.67;100048.34;4992621;28;20042;-74
2021/07/26 13:13:02;;;;;;;6.63;3.95;;;;;;;35.72;28.21;100037.22;4989792;28;20511;-75
2021/07/26 13:15:28;;;;;;;5.35;3.58;;;;;;;36.20;27.44;100047.94;4975159;28;20026;-74
2021/07/26 13:17:53;;;;;;;8.88;3.63;;;;;;;36.40;25.42;100049.09;4992677;28;20575;-74
2021/07/26 13:20:18;;;;;;;5.20;3.92;;;;;;;36.85;25.09;100049.09;4992498;28;20046;-74
2021/07/26 13:22:43;;;;;;;4.43;3.45;;;;;;;37.49;24.13;100056.59;4992775;28;20046;-74
2021/07/26 13:25:09;;;;;;;6.72;3.45;;;;;;;37.75;24.42;100047.78;4992413;28;20038;-75
2021/07/26 13:27:35;;;;;;;7.38;5.25;;;;;;;37.94;23.65;100046.25;4992632;28;20056;-74
2021/07/26 13:30:02;;;;;;;4.25;3.28;;;;;;;38.04;23.76;100043.16;4964065;28;20037;-74
2021/07/26 13:32:27;;;;;;;4.03;3.08;;;;;;;37.45;23.86;100045.16;4992694;28;20422;-75
2021/07/26 13:34:53;;;;;;;5.43;3.40;;;;;;;36.36;25.27;100039.50;4992357;28;20150;-74
2021/07/26 13:37:18;;;;;;;4.68;3.38;;;;;;;35.73;26.37;100041.66;4992446;28;20109;-74
2021/07/26 13:39:43;;;;;;;4.93;3.45;;;;;;;35.53;26.46;100040.44;4992384;28;20129;-74
2021/07/26 13:42:09;;;;;;;5.32;4.57;;;;;;;35.21;27.01;100042.34;4992351;28;20042;-75
2021/07/26 13:44:34;;;;;;;4.93;3.40;;;;;;;35.30;27.74;100044.03;4992128;28;20096;-75
2021/07/26 13:46:59;;;;;;;5.05;3.90;;;;;;;36.12;25.97;100042.53;4992313;28;20116;-75
2021/07/26 13:49:25;;;;;;;5.43;4.25;;;;;;;37.46;25.16;100044.09;4992154;28;20065;-74
2021/07/26 13:51:50;;;;;;;4.93;3.42;;;;;;;38.63;22.78;100034.47;4992212;28;20129;-74
2021/07/26 13:54:16;;;;;;;5.00;3.47;;;;;;;38.29;23.95;100035.31;4992112;28;20101;-74
2021/07/26 13:56:41;;;;;;;6.55;4.10;;;;;;;37.43;23.73;100038.13;4992219;28;20042;-75
2021/07/26 13:59:06;;;;;;;5.95;3.30;;;;;;;37.67;24.10;100036.91;4992123;28;20046;-75
2021/07/26 14:01:32;;;;;;;4.47;3.17;;;;;;;37.14;23.49;100041.84;4992068;28;20038;-75
2021/07/26 14:04:00;;;;;;;4.60;2.60;;;;;;;36.25;23.64;100041.88;4992158;28;20038;-74
2021/07/26 14:06:29;;;;;;;4.95;3.00;;;;;;;35.54;25.18;100036.66;4958442;28;20041;-74
2021/07/26 14:08:54;;;;;;;4.18;2.90;;;;;;;34.75;26.37;100045.00;4992019;28;20077;-75
2021/07/26 14:11:19;;;;;;;5.88;2.95;;;;;;;34.26;27.56;100053.34;4991430;28;20074;-75
2021/07/26 14:13:45;;;;;;;4.60;3.03;;;;;;;33.65;28.41;100057.50;4980795;28;20046;-75
2021/07/26 14:16:11;;;;;;;10.32;3.83;;;;;;;33.16;29.71;100061.81;4987760;28;20047;-75
2021/07/26 14:18:36;;;;;;;4.47;2.90;;;;;;;32.95;30.45;100070.44;4988735;28;20045;-75
2021/07/26 14:21:01;;;;;;;7.18;4.95;;;;;;;32.70;31.08;100072.22;4991837;28;20043;-75
2021/07/26 14:23:26;;;;;;;3.70;2.60;;;;;;;32.40;30.11;100072.72;4991864;28;20042;-74
2021/07/26 14:25:52;;;;;;;8.40;3.40;;;;;;;32.06;31.59;100077.09;4973710;28;20081;-75
2021/07/26 14:28:17;;;;;;;4.50;3.10;;;;;;;31.83;31.25;100071.28;4988571;28;20027;-74
2021/07/26 14:30:44;;;;;;;4.50;3.05;;;;;;;31.58;32.10;100066.63;4991093;28;20074;-74
2021/07/26 14:33:10;;;;;;;3.85;2.75;;;;;;;31.56;31.98;100074.09;4991865;28;20562;-74